Gerona, Spain
Current Conditions -  °F | °C
As of 5:30 AM on Sunday 23 Nov 2014 (Local Time) from LEGE Reporting Station
Scattered Clouds Scattered Clouds  
Wind Chill: 59°   Ceiling: Unl
Heat Index: 59°   Visibility: 6mi
Dew Point: 57°   Wind: 0mph
Humidity: 94%   Direction: NA
Pressure: 30.09"   Gusts: NA
Location:  41.98°N, 2.82°E
Report Text: LEGE 230430Z 00000KT 9999 SCT010 15/14 Q1019
Loading
Personal Weather Stations






























Interactive Weather Map New forecast layout! Learn more

10-Day Weather Forecast

Advertisements
Track Severe Weather on mobile